Airfield :
LOGIN :

Register | Disclaimer

   EN    FR    IT 

 










Legend :    VFR   Marginal VFR   IFR   Intensive IFR   Very Intensive IFR
Visi :
Ceiling :
>= 8 km
>= 3000ft
5 to 8 km
1000 to 3000 ft
1500m to 5 km
500 to 1000 ft
800 to 1500m
200 to 500 ft
< 800m
< 200 ft
Symbols :   Thunderstorms  Fog  Heavy snow  Heavy precipitations  Wind > 20 kt
SIGMETs :     Misc.  Thunderstorms  Icing  Turbulence  Mountain Waves  Volcanic Ashes






- Airport Elevation : 19 ft
- IATA code : LCY


EGLC - London City

CURRENT METAR :
  • 241520Z AUTO 19007KT 150V220 9999 -RA BKN048 13/07 Q0995

EXPIRED METARs :
  • 241450Z AUTO 21007KT 180V250 9999 NCD 13/06 Q0995
  • 241420Z AUTO 23006KT 200V260 9999 //////TCU 13/06 Q0996
  • 241350Z AUTO 25008KT 9999 FEW042/// //////TCU 13/06 Q0996
  • 241320Z AUTO 25013G25KT 9999 FEW035/// BKN046/// //////CB 15/07 Q0995
  • 241250Z AUTO 23008KT 200V260 9999 SCT039/// //////CB 15/08 Q0996 RERA

TAF TAF EGLC
Valid from the 24 at 15:00 until the 24 at 21:00 UTC


241402Z 2415/2421 22010KT 9999 SCT035
TEMPO 2415/2421 7000 SHRA
PROB30
TEMPO 2415/2421 4000 +SHRA
PROB30
TEMPO 2415/2416 22015G25KT
PROB30 2418/2421 VRB03KT
ATIS : +44 20 7646 0224



MET'MAP, your aeronautical weather chart ! - Copyright ORBIFLY December 2007 - Disclaimer

ORBIFLY MET'MAP TEAM :

Programming & Development : Alexandra Zaïnal
Concept & original design : Baudouin d'Aumeries
Assistance for programming : Marc-Olivier Méhu
Technical & hardware support : Manuel Goepfert

Contact : metmap@orbifly.com




SOURCES & CREDITS :

   NOAA